Terminal Aerodrome Forecast
Issued by NWS Norman, OK

Home | Current Version | Previous Version | Text Only | Print | Product List | Glossary On
Versions: 1 2 3 4 5 6 7 8 9 10 11 12 13
000
FTUS44 KOUN 251941 AAA
TAFSPS
TAF AMD
KSPS 251941Z 2520/2618 16012KT P6SM VCSH SCT050 BKN100
     FM252100 17010KT 6SM -SHRA OVC050
     FM260300 07008KT 5SM SHRA OVC025=

USA.gov is the U.S. government's official web portal to all federal, state and local government web resources and services.